createdAt,value
2019-01-27T00:01:01.282Z,4.10
2019-01-27T00:03:32.424Z,4.09
2019-01-27T00:06:03.232Z,4.08
2019-01-27T00:08:34.194Z,4.11
2019-01-27T00:11:05.060Z,4.09
2019-01-27T00:13:35.890Z,4.14
2019-01-27T00:16:08.263Z,4.15
2019-01-27T00:18:39.128Z,4.13
2019-01-27T00:21:09.892Z,4.15
2019-01-27T00:23:40.774Z,4.15
2019-01-27T00:26:11.581Z,4.11
2019-01-27T00:28:42.440Z,4.11
2019-01-27T00:31:13.308Z,4.14
2019-01-27T00:33:44.116Z,4.10
2019-01-27T00:36:14.924Z,4.09
2019-01-27T00:38:45.699Z,4.10
2019-01-27T00:41:16.510Z,4.09
2019-01-27T00:43:47.309Z,4.13
2019-01-27T00:46:18.143Z,4.08
2019-01-27T00:48:49.015Z,4.06
2019-01-27T00:51:19.892Z,4.07
2019-01-27T00:53:50.669Z,4.10
2019-01-27T00:56:22.554Z,4.05
2019-01-27T00:58:53.390Z,4.03
2019-01-27T01:01:24.265Z,4.04
2019-01-27T01:03:55.069Z,4.04
2019-01-27T01:06:25.929Z,4.06
2019-01-27T01:08:56.691Z,4.09
2019-01-27T01:11:27.515Z,4.10
2019-01-27T01:13:58.333Z,4.02
2019-01-27T01:16:29.147Z,4.08
2019-01-27T01:18:59.923Z,4.05
2019-01-27T01:21:30.691Z,4.10
2019-01-27T01:24:01.699Z,4.06
2019-01-27T01:26:32.552Z,3.98
2019-01-27T01:29:03.382Z,4.00
2019-01-27T01:31:34.205Z,3.96
2019-01-27T01:34:05.495Z,4.03
2019-01-27T01:36:36.274Z,4.05
2019-01-27T01:39:12.055Z,3.97
2019-01-27T01:41:42.843Z,3.98
2019-01-27T01:44:13.671Z,3.95
2019-01-27T01:46:44.571Z,3.97
2019-01-27T01:49:15.391Z,3.96
2019-01-27T01:51:46.180Z,4.01
2019-01-27T01:54:16.991Z,3.98
2019-01-27T01:56:47.752Z,3.95
2019-01-27T01:59:18.609Z,3.88
2019-01-27T02:01:49.376Z,3.93
2019-01-27T02:04:20.168Z,3.93
2019-01-27T02:06:50.961Z,3.95
2019-01-27T02:09:21.822Z,3.94
2019-01-27T02:11:52.615Z,3.95
2019-01-27T02:14:23.505Z,3.87
2019-01-27T02:16:54.259Z,3.88
2019-01-27T02:19:25.053Z,3.89
2019-01-27T02:21:56.012Z,3.89
2019-01-27T02:24:28.042Z,3.92
2019-01-27T02:26:58.854Z,3.91
2019-01-27T02:29:32.426Z,3.93
2019-01-27T02:32:04.014Z,3.98
2019-01-27T02:34:36.236Z,3.98
2019-01-27T02:37:10.144Z,3.96
2019-01-27T02:39:44.311Z,3.96
2019-01-27T02:42:20.308Z,3.90
2019-01-27T02:44:51.282Z,3.92
2019-01-27T02:47:26.328Z,3.89
2019-01-27T02:49:57.176Z,3.99
2019-01-27T02:52:28.298Z,3.96
2019-01-27T02:54:59.657Z,3.99
2019-01-27T02:57:35.126Z,3.99
2019-01-27T03:00:08.717Z,4.00
2019-01-27T03:02:41.298Z,4.02
2019-01-27T03:05:29.858Z,4.01
2019-01-27T03:08:01.310Z,4.01
2019-01-27T03:10:35.650Z,3.96
2019-01-27T03:13:08.435Z,3.96
2019-01-27T03:15:39.542Z,3.93
2019-01-27T03:18:11.058Z,3.99
2019-01-27T03:20:48.138Z,3.90
2019-01-27T03:23:19.125Z,3.94
2019-01-27T03:25:53.346Z,3.87
2019-01-27T03:28:24.413Z,3.85
2019-01-27T03:30:55.595Z,3.84
2019-01-27T03:33:26.373Z,3.93
2019-01-27T03:35:58.038Z,3.93
2019-01-27T03:38:29.112Z,3.89
2019-01-27T03:41:00.386Z,3.83
2019-01-27T03:43:31.538Z,3.83
2019-01-27T03:46:03.588Z,3.84
2019-01-27T03:48:34.434Z,3.87
2019-01-27T03:51:09.106Z,3.97
2019-01-27T03:53:40.218Z,3.91
2019-01-27T03:56:12.228Z,3.86
2019-01-27T03:58:43.970Z,3.90
2019-01-27T04:01:15.309Z,3.87
2019-01-27T04:03:46.619Z,3.82
2019-01-27T04:06:21.063Z,3.87
2019-01-27T04:08:52.032Z,3.91
2019-01-27T04:11:24.548Z,3.83
2019-01-27T04:13:55.610Z,3.88
2019-01-27T04:16:26.411Z,3.81
2019-01-27T04:19:00.093Z,3.79
2019-01-27T04:21:31.151Z,3.88
2019-01-27T04:24:02.505Z,3.92
2019-01-27T04:26:33.562Z,3.88
2019-01-27T04:29:08.352Z,3.79
2019-01-27T04:31:40.851Z,3.89
2019-01-27T04:34:11.777Z,3.88
2019-01-27T04:36:44.710Z,3.92
2019-01-27T04:39:16.051Z,3.85
2019-01-27T04:41:47.072Z,3.80
2019-01-27T04:44:17.974Z,3.79
2019-01-27T04:46:51.069Z,3.89
2019-01-27T04:49:22.043Z,3.82
2019-01-27T04:51:53.402Z,3.79
2019-01-27T04:54:24.278Z,3.68
2019-01-27T04:56:58.380Z,3.81
2019-01-27T04:59:29.140Z,3.79
2019-01-27T05:02:00.434Z,3.73
2019-01-27T05:04:36.834Z,3.75
2019-01-27T05:07:10.858Z,3.76
2019-01-27T05:09:42.354Z,3.72
2019-01-27T05:12:13.465Z,3.64
2019-01-27T05:14:47.443Z,3.57
2019-01-27T05:17:18.855Z,3.61
2019-01-27T05:19:49.741Z,3.63
2019-01-27T05:22:22.557Z,3.66
2019-01-27T05:24:53.541Z,3.71
2019-01-27T05:27:25.425Z,3.65
2019-01-27T05:29:57.048Z,3.70
2019-01-27T05:32:27.864Z,3.76
2019-01-27T05:34:59.110Z,3.82
2019-01-27T05:37:32.865Z,3.81
2019-01-27T05:40:04.504Z,3.75
2019-01-27T05:42:35.402Z,3.72
2019-01-27T05:45:11.254Z,3.73
2019-01-27T05:47:44.203Z,3.73
2019-01-27T05:50:19.949Z,3.89
2019-01-27T05:52:51.390Z,3.89
2019-01-27T05:55:23.115Z,3.88
2019-01-27T05:57:57.888Z,3.86
2019-01-27T06:00:33.648Z,3.77
2019-01-27T06:03:05.297Z,3.90
2019-01-27T06:05:37.150Z,3.92
2019-01-27T06:08:11.900Z,3.90
2019-01-27T06:10:43.271Z,3.91
2019-01-27T06:13:14.167Z,3.96
2019-01-27T06:15:48.221Z,3.91
2019-01-27T06:18:22.362Z,3.89
2019-01-27T06:20:53.554Z,3.91
2019-01-27T06:23:26.565Z,3.88
2019-01-27T06:25:57.585Z,3.99
2019-01-27T06:28:28.304Z,3.91
2019-01-27T06:30:59.179Z,3.97
2019-01-27T06:33:50.013Z,3.98
2019-01-27T06:36:20.752Z,4.07
2019-01-27T06:38:51.569Z,4.06
2019-01-27T06:41:22.425Z,4.05
2019-01-27T06:43:53.200Z,4.06
2019-01-27T06:46:25.435Z,4.02
2019-01-27T06:48:56.443Z,4.02
2019-01-27T06:51:27.262Z,4.03
2019-01-27T06:53:58.036Z,4.15
2019-01-27T06:56:29.037Z,4.17
2019-01-27T06:59:24.602Z,4.15
2019-01-27T07:02:05.104Z,4.15
2019-01-27T07:04:44.603Z,4.15
2019-01-27T07:07:22.344Z,4.13
2019-01-27T07:10:18.196Z,4.08
2019-01-27T07:13:02.368Z,4.12
2019-01-27T07:15:45.892Z,4.18
2019-01-27T07:18:50.956Z,4.15
2019-01-27T07:21:46.491Z,4.17
2019-01-27T07:24:36.170Z,4.23
2019-01-27T07:27:41.232Z,4.34
2019-01-27T07:30:47.538Z,4.30
2019-01-27T07:33:40.820Z,4.29
2019-01-27T07:36:45.783Z,4.41
2019-01-27T07:39:38.345Z,4.38
2019-01-27T07:42:27.968Z,4.42
2019-01-27T07:45:15.779Z,4.46
2019-01-27T07:47:54.936Z,4.57
2019-01-27T07:50:36.485Z,4.70
2019-01-27T07:53:41.256Z,4.61
2019-01-27T07:56:30.877Z,4.59
2019-01-27T07:59:13.980Z,4.49
2019-01-27T08:02:02.816Z,4.53
2019-01-27T08:04:49.563Z,4.58
2019-01-27T08:07:46.506Z,4.63
2019-01-27T08:10:45.793Z,4.59
2019-01-27T08:13:47.853Z,4.61
2019-01-27T08:16:36.646Z,4.59
2019-01-27T08:19:24.940Z,4.63
2019-01-27T08:22:29.128Z,4.67
2019-01-27T08:25:28.211Z,4.65
2019-01-27T08:28:10.866Z,4.71
2019-01-27T08:31:15.787Z,4.62
2019-01-27T08:34:02.254Z,4.67
2019-01-27T08:36:44.340Z,4.82
2019-01-27T08:39:28.256Z,4.97
2019-01-27T08:42:10.896Z,5.18
2019-01-27T08:45:19.247Z,5.51
2019-01-27T08:47:50.056Z,5.74
2019-01-27T08:50:24.604Z,5.90
2019-01-27T08:52:55.414Z,5.96
2019-01-27T08:55:27.606Z,6.10
2019-01-27T08:57:58.405Z,6.29
2019-01-27T09:00:44.581Z,6.54
2019-01-27T09:03:46.586Z,6.52
2019-01-27T09:06:42.177Z,6.46
2019-01-27T09:09:30.498Z,6.34
2019-01-27T09:12:23.604Z,6.32
2019-01-27T09:15:28.968Z,6.13
2019-01-27T09:18:17.516Z,5.75
2019-01-27T09:20:56.440Z,5.88
2019-01-27T09:23:49.273Z,6.03
2019-01-27T09:26:42.025Z,6.20
2019-01-27T09:29:31.757Z,6.36
2019-01-27T09:32:20.253Z,6.65
2019-01-27T09:35:01.203Z,6.73
2019-01-27T09:37:39.926Z,6.61
2019-01-27T09:40:35.054Z,6.64
2019-01-27T09:43:25.371Z,6.59
2019-01-27T09:46:05.520Z,6.59
2019-01-27T09:49:00.683Z,6.87
2019-01-27T09:51:46.259Z,7.16
2019-01-27T09:54:24.181Z,7.44
2019-01-27T09:57:29.397Z,7.67
2019-01-27T10:00:21.701Z,7.79
2019-01-27T10:03:23.820Z,7.86
2019-01-27T10:06:16.586Z,7.82
2019-01-27T10:09:06.077Z,7.80
2019-01-27T10:11:52.152Z,7.49
2019-01-27T10:14:54.477Z,7.76
2019-01-27T10:17:40.358Z,7.78
2019-01-27T10:20:33.803Z,7.87
2019-01-27T10:23:19.960Z,7.97
2019-01-27T10:26:21.036Z,8.00
2019-01-27T10:29:10.565Z,8.12
2019-01-27T10:32:03.977Z,8.17
2019-01-27T10:34:44.839Z,8.19
2019-01-27T10:37:31.162Z,8.34
2019-01-27T10:40:20.885Z,8.29
2019-01-27T10:43:00.532Z,8.39
2019-01-27T10:45:40.636Z,8.08
2019-01-27T10:48:22.190Z,7.86
2019-01-27T10:51:08.796Z,8.12
2019-01-27T10:53:46.188Z,7.96
2019-01-27T10:56:38.792Z,8.04
2019-01-27T10:59:34.518Z,8.20
2019-01-27T11:02:27.594Z,8.37
2019-01-27T11:05:20.221Z,8.30
2019-01-27T11:08:19.007Z,8.11
2019-01-27T11:11:08.701Z,8.24
2019-01-27T11:13:53.725Z,8.54
2019-01-27T11:16:42.302Z,8.50
2019-01-27T11:19:32.003Z,8.41
2019-01-27T11:22:12.792Z,8.49
2019-01-27T11:25:01.228Z,8.67
2019-01-27T11:27:44.824Z,8.38
2019-01-27T11:30:39.214Z,8.02
2019-01-27T11:33:28.983Z,8.31
2019-01-27T11:36:34.048Z,8.15
2019-01-27T11:39:44.268Z,8.27
2019-01-27T11:42:52.251Z,8.53
2019-01-27T11:45:28.305Z,8.86
2019-01-27T11:48:27.423Z,8.94
2019-01-27T11:51:03.618Z,9.74
2019-01-27T11:53:34.441Z,9.05
2019-01-27T11:56:05.673Z,9.41
2019-01-27T11:58:37.852Z,9.12
2019-01-27T12:01:08.767Z,8.59
2019-01-27T12:03:39.662Z,8.52
2019-01-27T12:06:10.506Z,8.99
2019-01-27T12:08:41.356Z,9.13
2019-01-27T12:11:12.150Z,8.93
2019-01-27T12:13:42.954Z,8.40
2019-01-27T12:16:13.918Z,8.49
2019-01-27T12:18:44.822Z,8.81
2019-01-27T12:21:15.746Z,8.93
2019-01-27T12:23:46.636Z,8.80
2019-01-27T12:26:17.421Z,8.76
2019-01-27T12:28:48.237Z,8.73
2019-01-27T12:31:19.036Z,8.46
2019-01-27T12:33:49.834Z,8.49
2019-01-27T12:36:20.699Z,8.22
2019-01-27T12:38:51.558Z,8.26
2019-01-27T12:41:22.338Z,8.11
2019-01-27T12:43:53.090Z,8.06
2019-01-27T12:46:24.022Z,8.21
2019-01-27T12:48:54.819Z,8.27
2019-01-27T12:51:25.598Z,8.49
2019-01-27T12:53:56.478Z,8.64
2019-01-27T12:56:27.251Z,8.48
2019-01-27T12:58:58.083Z,8.55
2019-01-27T13:01:28.946Z,8.64
2019-01-27T13:03:59.766Z,8.54
2019-01-27T13:06:30.547Z,8.47
2019-01-27T13:09:01.418Z,8.43
2019-01-27T13:11:32.402Z,8.38
2019-01-27T13:14:03.189Z,8.52
2019-01-27T13:16:36.214Z,8.57
2019-01-27T13:19:07.330Z,8.60
2019-01-27T13:21:38.519Z,8.44
2019-01-27T13:24:09.292Z,8.37
2019-01-27T13:26:40.225Z,8.60
2019-01-27T13:29:11.173Z,8.69
2019-01-27T13:31:41.997Z,8.84
2019-01-27T13:34:12.817Z,8.72
2019-01-27T13:36:43.644Z,8.74
2019-01-27T13:39:14.466Z,8.56
2019-01-27T13:41:45.302Z,8.57
2019-01-27T13:44:16.135Z,8.37
2019-01-27T13:46:46.952Z,8.23
2019-01-27T13:49:17.721Z,8.56
2019-01-27T13:51:48.625Z,8.81
2019-01-27T13:54:19.452Z,9.07
2019-01-27T13:56:50.351Z,9.30
2019-01-27T13:59:26.721Z,9.57
2019-01-27T14:01:57.491Z,9.95
2019-01-27T14:04:28.309Z,9.91
2019-01-27T14:06:59.115Z,9.37
2019-01-27T14:09:29.943Z,8.42
2019-01-27T14:12:00.712Z,8.15
2019-01-27T14:14:31.549Z,8.06
2019-01-27T14:17:02.387Z,7.95
2019-01-27T14:19:33.211Z,8.00
2019-01-27T14:22:06.114Z,8.07
2019-01-27T14:24:36.997Z,8.11
2019-01-27T14:27:07.893Z,8.18
2019-01-27T14:29:38.790Z,8.11
2019-01-27T14:32:09.731Z,8.00
2019-01-27T14:34:40.615Z,7.94
2019-01-27T14:37:11.443Z,7.84
2019-01-27T14:39:42.325Z,7.89
2019-01-27T14:42:13.223Z,7.85
2019-01-27T14:44:44.053Z,7.67
2019-01-27T14:47:14.932Z,7.52
2019-01-27T14:49:45.714Z,7.48
2019-01-27T14:52:16.665Z,7.32
2019-01-27T14:54:47.509Z,7.15
2019-01-27T14:57:18.327Z,6.98
2019-01-27T14:59:49.154Z,6.69
2019-01-27T15:02:20.063Z,6.63
2019-01-27T15:04:53.993Z,6.53
2019-01-27T15:07:25.014Z,6.53
2019-01-27T15:09:55.807Z,6.49
2019-01-27T15:12:26.637Z,6.40
2019-01-27T15:15:45.985Z,6.22
2019-01-27T15:18:17.828Z,5.97
2019-01-27T15:20:54.616Z,5.79
2019-01-27T15:23:28.006Z,5.70
2019-01-27T15:26:02.459Z,5.55
2019-01-27T15:28:34.525Z,5.34
2019-01-27T15:31:06.878Z,5.47
2019-01-27T15:33:38.722Z,5.26
2019-01-27T15:36:10.688Z,5.07
2019-01-27T15:38:42.668Z,5.04
2019-01-27T15:41:14.592Z,4.92
2019-01-27T15:43:48.733Z,4.86
2019-01-27T15:46:20.616Z,4.85
2019-01-27T15:48:52.456Z,4.77
2019-01-27T15:51:25.636Z,4.75
2019-01-27T15:53:57.549Z,4.74
2019-01-27T15:56:29.446Z,4.80
2019-01-27T15:59:02.362Z,4.99
2019-01-27T16:01:34.228Z,5.08
2019-01-27T16:04:06.150Z,5.16
2019-01-27T16:06:38.124Z,5.20
2019-01-27T16:09:10.604Z,5.25
2019-01-27T16:11:43.473Z,5.26
2019-01-27T16:14:15.455Z,5.25
2019-01-27T16:16:51.202Z,5.23
2019-01-27T16:19:23.106Z,5.27
2019-01-27T16:21:55.127Z,5.29
2019-01-27T16:24:30.261Z,5.29
2019-01-27T16:27:02.304Z,5.29
2019-01-27T16:29:53.290Z,5.27
2019-01-27T16:32:32.107Z,5.26
2019-01-27T16:35:10.006Z,5.35
2019-01-27T16:37:43.488Z,5.39
2019-01-27T16:40:22.740Z,5.50
2019-01-27T16:42:54.806Z,5.73
2019-01-27T16:45:27.109Z,5.76
2019-01-27T16:47:59.694Z,5.88
2019-01-27T16:50:31.733Z,6.35
2019-01-27T16:53:04.107Z,6.47
2019-01-27T16:55:36.423Z,6.10
2019-01-27T16:58:08.649Z,5.90
2019-01-27T17:00:40.949Z,5.75
2019-01-27T17:03:12.866Z,5.53
2019-01-27T17:05:44.770Z,5.41
2019-01-27T17:08:16.844Z,5.40
2019-01-27T17:10:48.856Z,5.27
2019-01-27T17:13:20.987Z,5.38
2019-01-27T17:15:52.905Z,5.47
2019-01-27T17:18:24.812Z,5.26
2019-01-27T17:20:57.062Z,5.23
2019-01-27T17:23:29.252Z,5.29
2019-01-27T17:26:03.140Z,5.26
2019-01-27T17:28:35.719Z,5.11
2019-01-27T17:31:08.049Z,5.13
2019-01-27T17:33:40.687Z,5.12
2019-01-27T17:36:13.336Z,5.43
2019-01-27T17:38:45.620Z,5.76
2019-01-27T17:41:17.901Z,5.61
2019-01-27T17:43:50.094Z,5.46
2019-01-27T17:46:25.299Z,5.41
2019-01-27T17:48:57.872Z,5.36
2019-01-27T17:51:30.271Z,5.36
2019-01-27T17:54:04.877Z,5.24
2019-01-27T17:56:38.570Z,5.28
2019-01-27T17:59:26.561Z,5.24
2019-01-27T18:02:15.783Z,5.30
2019-01-27T18:05:06.019Z,5.33
2019-01-27T18:07:59.700Z,5.23
2019-01-27T18:10:53.664Z,5.10
2019-01-27T18:13:56.768Z,4.96
2019-01-27T18:16:28.905Z,5.04
2019-01-27T18:19:00.935Z,5.15
2019-01-27T18:21:32.968Z,5.08
2019-01-27T18:24:05.076Z,5.08
2019-01-27T18:26:37.774Z,5.10
2019-01-27T18:29:10.231Z,4.97
2019-01-27T18:31:42.468Z,5.12
2019-01-27T18:34:14.559Z,5.01
2019-01-27T18:36:49.573Z,4.99
2019-01-27T18:39:23.410Z,4.91
2019-01-27T18:41:55.388Z,4.99
2019-01-27T18:44:27.477Z,5.11
2019-01-27T18:46:59.410Z,5.17
2019-01-27T18:49:31.929Z,5.09
2019-01-27T18:52:04.520Z,4.92
2019-01-27T18:54:51.917Z,4.65
2019-01-27T18:57:48.576Z,4.59
2019-01-27T19:00:42.575Z,4.36
2019-01-27T19:03:36.661Z,4.27
2019-01-27T19:06:37.015Z,4.29
2019-01-27T19:09:33.587Z,4.44
2019-01-27T19:12:35.329Z,4.38
2019-01-27T19:15:30.762Z,4.21
2019-01-27T19:18:34.002Z,4.16
2019-01-27T19:21:15.627Z,4.25
2019-01-27T19:24:09.667Z,4.10
2019-01-27T19:26:51.967Z,4.23
2019-01-27T19:29:46.220Z,4.35
2019-01-27T19:32:34.367Z,4.57
2019-01-27T19:35:31.856Z,4.66
2019-01-27T19:38:10.805Z,4.81
2019-01-27T19:40:59.590Z,4.88
2019-01-27T19:43:50.484Z,5.04
2019-01-27T19:46:28.537Z,5.14
2019-01-27T19:49:10.862Z,5.22
2019-01-27T19:52:07.779Z,5.24
2019-01-27T19:55:16.891Z,5.26
2019-01-27T19:58:16.934Z,5.33
2019-01-27T20:01:13.950Z,5.27
2019-01-27T20:03:53.315Z,5.19
2019-01-27T20:06:31.525Z,5.26
2019-01-27T20:09:15.603Z,5.06
2019-01-27T20:12:18.267Z,5.12
2019-01-27T20:15:15.164Z,5.16
2019-01-27T20:18:17.926Z,5.24
2019-01-27T20:21:11.846Z,5.33
2019-01-27T20:24:01.203Z,5.34
2019-01-27T20:26:52.090Z,5.39
2019-01-27T20:29:45.390Z,5.40
2019-01-27T20:32:45.273Z,5.45
2019-01-27T20:35:38.910Z,5.45
2019-01-27T20:38:19.168Z,5.43
2019-01-27T20:41:25.082Z,5.42
2019-01-27T20:44:16.871Z,5.43
2019-01-27T20:47:00.378Z,5.44
2019-01-27T20:50:03.338Z,5.43
2019-01-27T20:52:39.392Z,5.41
2019-01-27T20:55:23.653Z,5.50
2019-01-27T20:58:04.616Z,5.60
2019-01-27T21:00:47.381Z,5.70
2019-01-27T21:03:41.401Z,5.72
2019-01-27T21:06:32.159Z,5.71
2019-01-27T21:09:21.213Z,5.66
2019-01-27T21:12:24.299Z,5.67
2019-01-27T21:15:21.273Z,5.74
2019-01-27T21:18:07.827Z,5.69
2019-01-27T21:20:39.780Z,5.64
2019-01-27T21:23:12.799Z,5.68
2019-01-27T21:25:44.723Z,5.80
2019-01-27T21:28:16.645Z,5.78
2019-01-27T21:30:48.471Z,5.88
2019-01-27T21:33:20.295Z,5.81
2019-01-27T21:35:52.118Z,5.86
2019-01-27T21:38:23.925Z,5.87
2019-01-27T21:40:55.839Z,5.88
2019-01-27T21:43:27.661Z,5.94
2019-01-27T21:45:59.500Z,5.92
2019-01-27T21:48:31.373Z,5.94
2019-01-27T21:51:06.077Z,5.95
2019-01-27T21:53:37.907Z,5.95
2019-01-27T21:56:09.812Z,5.83
2019-01-27T21:58:41.700Z,5.81
2019-01-27T22:01:13.557Z,5.81
2019-01-27T22:03:45.442Z,5.75
2019-01-27T22:06:17.279Z,5.71
2019-01-27T22:08:49.161Z,5.77
2019-01-27T22:11:21.017Z,5.79
2019-01-27T22:13:52.885Z,5.69
2019-01-27T22:16:24.755Z,5.69
2019-01-27T22:18:56.561Z,5.52
2019-01-27T22:21:28.398Z,5.54
2019-01-27T22:24:00.172Z,5.55
2019-01-27T22:26:32.005Z,5.59
2019-01-27T22:29:03.879Z,5.69
2019-01-27T22:31:35.729Z,5.69
2019-01-27T22:34:07.545Z,5.75
2019-01-27T22:36:39.365Z,5.68
2019-01-27T22:39:11.735Z,5.64
2019-01-27T22:41:43.619Z,5.73
2019-01-27T22:44:15.489Z,5.71
2019-01-27T22:46:47.458Z,5.75
2019-01-27T22:49:19.342Z,5.74
2019-01-27T22:51:51.221Z,5.73
2019-01-27T22:54:23.126Z,5.68
2019-01-27T22:56:55.027Z,5.60
2019-01-27T22:59:26.910Z,5.61
2019-01-27T23:01:58.775Z,5.52
2019-01-27T23:04:30.683Z,5.45
2019-01-27T23:07:02.677Z,5.43
2019-01-27T23:09:34.750Z,5.47
2019-01-27T23:12:06.933Z,5.52
2019-01-27T23:14:38.901Z,5.58
2019-01-27T23:17:10.783Z,5.63
2019-01-27T23:19:42.627Z,5.61
2019-01-27T23:22:14.463Z,5.61
2019-01-27T23:24:46.283Z,5.55
2019-01-27T23:27:18.178Z,5.47
2019-01-27T23:29:50.073Z,5.51
2019-01-27T23:32:21.906Z,5.61
2019-01-27T23:34:53.783Z,5.60
2019-01-27T23:37:25.557Z,5.67
2019-01-27T23:39:57.399Z,5.76
2019-01-27T23:42:29.287Z,5.62
2019-01-27T23:45:01.216Z,5.63
2019-01-27T23:47:33.205Z,5.68
2019-01-27T23:50:05.812Z,5.64
2019-01-27T23:52:37.941Z,5.63
2019-01-27T23:55:09.960Z,5.64
2019-01-27T23:57:41.770Z,5.68
